• Join FlightAware (Why Join?)
  • Login
  • US Flag 
06:50PM EST


 

Airport Tracker/Info


-or-


 

Live Flight TrackerFlight Track Log ✈ N182BB ✈ 16-Jul-2013 ✈ KCQX - KPSM

Flight Track Log - Related Links

Times and Time Zones

All times are in EDT time to prevent confusion due to time zone crossing. See the N182BB flight status page for this flight to view local times or setup timezone preferences in your user account.

Time Position Orientation Groundspeed Altitude Reporting Facility
EDT Latitude Longitude Course Direction KTS MPH feet Rate Location/Type
03:51PM 41.7500 -70.1500 296° West 100 115 6,100  Level KA90
03:52PM 41.7606 -70.1817 294° West  Level FlightAware Approximate
03:52PM 41.7667 -70.1833 304° West 110 127 6,200  Level KA90
03:53PM 41.7742 -70.2226 294° West  Level FlightAware Approximate
03:53PM 41.7833 -70.2167 304° West 127 146 6,100  Level KA90
03:54PM 41.7883 -70.2634 296° West  Level FlightAware Approximate
03:54PM 41.8000 -70.2667 294° West 134 154 6,200  Level KA90
03:55PM 41.8032 -70.3035 296° West  Level FlightAware Approximate
03:55PM 41.8333 -70.3000 323° Northwest 136 157 6,100  Level KA90
03:56PM 41.8180 -70.3438 296° West  Level FlightAware Approximate
03:56PM 41.8500 -70.3333 304° West 134 154 6,200  Level KA90
03:57PM 41.8833 -70.3833 312° West 134 154 6,200  Level KA90
03:58PM 41.9167 -70.4167 323° Northwest 135 155 6,200  Level KA90
03:59PM 41.9333 -70.4500 304° West 134 154 6,200  Level KA90
04:00PM 41.9500 -70.4833 304° West 131 151 6,200  Level KA90
04:01PM 41.9833 -70.5167 323° Northwest 136 157 6,200  Level KA90
04:02PM 42.0167 -70.5333 340° North 125 144 6,200  Level KA90
04:03PM 42.0500 -70.5500 340° North 124 143 6,200  Level KA90
04:04PM 42.0833 -70.5667 340° North 124 143 6,200 -60 Level KA90
04:05PM 42.1167 -70.5667 360° North 131 151 6,100 -60 Descending KA90
04:06PM 42.1500 -70.5833 340° North 126 145 6,100  Level KA90
04:07PM 42.1833 -70.5833 360° North 123 142 6,100 -240 Level KA90
04:08PM 42.2167 -70.5833 360° North 130 150 5,700 -360 Descending KA90
04:09PM 42.2667 -70.5833 360° North 136 157 5,400 -480 Descending KA90
04:10PM 42.3000 -70.5833 360° North 139 160 4,800 -540 Descending KA90
04:11PM 42.3333 -70.6000 340° North 137 158 4,400 -360 Descending KA90
04:12PM 42.3667 -70.6000 360° North 135 155 4,100 -180 Descending KA90
04:13PM 42.4000 -70.6167 340° North 128 147 4,100  Level KA90
04:14PM 42.4500 -70.6167 360° North 125 144 4,100  Level KA90
04:15PM 42.4667 -70.6333 324° Northwest 125 144 4,100  Level KA90
04:16PM 42.5167 -70.6500 346° North 125 144 4,100  Level KA90
04:17PM 42.5500 -70.6500 360° North 125 144 4,100  Level KA90
04:18PM 42.5833 -70.6667 340° North 124 143 4,100  Level KA90
04:19PM 42.6167 -70.6667 360° North 125 144 4,100  Level KA90
04:20PM 42.6500 -70.6833 340° North 125 144 4,100  Level KA90
04:21PM 42.6833 -70.7000 340° North 125 144 4,100 -300 Level KA90
04:22PM 42.7167 -70.7167 340° North 137 158 3,600 -540 Descending KA90
04:23PM 42.7500 -70.7333 340° North 140 161 3,100 -300 Descending KA90
04:24PM 42.7833 -70.7333 360° North 134 154 3,000 -240 Descending KA90
04:25PM 42.8167 -70.7500 340° North 132 152 2,700  Descending KA90
04:26PM 42.8500 -70.7667 340° North 117 135 3,000 120 Climbing KA90
04:27PM 42.8833 -70.7833 340° North 128 147 3,000  Level KA90
04:28PM 42.9333 -70.7833 360° North 132 152 3,100  Climbing KA90
04:29PM 42.9500 -70.8167 304° West 134 154 3,100  Level KA90
04:30PM 43.0000 -70.8333 346° North 131 151 3,100 -60 Level KA90
04:31PM 43.0167 -70.8500 324° Northwest 132 152 3,000 -540 Descending KA90
04:32PM 43.0667 -70.8667 346° North 145 167 2,100 -900 Descending KA90
04:33PM 43.1000 -70.8667 360° North 127 146 1,300 -840 Descending KA90